createdAt,value
2023-02-22T00:02:07.690Z,31.70
2023-02-22T00:04:34.526Z,32.17
2023-02-22T00:07:01.320Z,31.80
2023-02-22T00:09:28.309Z,30.17
2023-02-22T00:11:56.442Z,32.53
2023-02-22T00:14:32.430Z,32.38
2023-02-22T00:16:59.932Z,32.13
2023-02-22T00:19:27.657Z,34.67
2023-02-22T00:21:55.198Z,33.70
2023-02-22T00:24:23.636Z,35.67
2023-02-22T00:26:52.157Z,35.13
2023-02-22T00:29:19.109Z,33.67
2023-02-22T00:31:52.860Z,33.63
2023-02-22T00:34:20.166Z,34.35
2023-02-22T00:36:47.963Z,35.60
2023-02-22T00:39:16.645Z,34.38
2023-02-22T00:41:44.527Z,36.67
2023-02-22T00:44:11.689Z,35.35
2023-02-22T00:46:41.377Z,35.97
2023-02-22T00:49:10.371Z,37.78
2023-02-22T00:51:37.305Z,35.83
2023-02-22T00:54:04.964Z,34.85
2023-02-22T00:56:35.574Z,34.95
2023-02-22T00:59:02.927Z,35.08
2023-02-22T01:01:30.916Z,36.40
2023-02-22T01:03:59.732Z,34.92
2023-02-22T01:06:28.570Z,35.53
2023-02-22T01:08:55.501Z,35.60
2023-02-22T01:11:26.826Z,35.78
2023-02-22T01:13:54.113Z,35.50
2023-02-22T01:16:22.061Z,34.08
2023-02-22T01:18:49.016Z,35.13
2023-02-22T01:21:16.088Z,36.60
2023-02-22T01:23:47.998Z,37.65
2023-02-22T01:26:14.772Z,37.47
2023-02-22T01:28:42.625Z,38.22
2023-02-22T01:31:10.419Z,37.83
2023-02-22T01:33:37.501Z,38.75
2023-02-22T01:36:04.992Z,38.30
2023-02-22T01:38:32.928Z,38.67
2023-02-22T01:41:01.800Z,37.45
2023-02-22T01:43:31.390Z,36.90
2023-02-22T01:46:01.227Z,37.38
2023-02-22T01:48:33.669Z,36.83
2023-02-22T01:53:33.296Z,35.42
2023-02-22T01:56:06.183Z,36.42
2023-02-22T01:58:42.750Z,35.33
2023-02-22T02:01:10.626Z,37.00
2023-02-22T02:03:39.996Z,37.45
2023-02-22T02:06:13.523Z,37.22
2023-02-22T02:11:14.272Z,36.72
2023-02-22T02:13:41.359Z,35.95
2023-02-22T02:16:10.145Z,36.42
2023-02-22T02:18:37.394Z,36.90
2023-02-22T02:21:42.229Z,36.05
2023-02-22T02:24:50.390Z,37.78
2023-02-22T02:27:22.509Z,35.00
2023-02-22T02:30:23.198Z,35.50
2023-02-22T02:32:56.702Z,34.40
2023-02-22T02:35:34.993Z,35.15
2023-02-22T02:38:09.484Z,37.15
2023-02-22T02:40:42.176Z,35.17
2023-02-22T02:43:16.115Z,36.10
2023-02-22T02:45:49.796Z,36.67
2023-02-22T02:48:24.024Z,33.97
2023-02-22T02:50:55.382Z,32.50
2023-02-22T02:53:27.160Z,34.55
2023-02-22T02:55:54.301Z,32.13
2023-02-22T02:58:25.839Z,32.97
2023-02-22T03:00:57.000Z,30.48
2023-02-22T03:03:41.484Z,29.88
2023-02-22T03:06:24.164Z,30.83
2023-02-22T03:08:59.425Z,29.95
2023-02-22T03:11:31.101Z,29.23
2023-02-22T03:14:10.542Z,29.65
2023-02-22T03:16:46.223Z,30.92
2023-02-22T03:19:21.909Z,29.25
2023-02-22T03:21:57.624Z,31.88
2023-02-22T03:24:30.073Z,30.23
2023-02-22T03:27:03.573Z,31.80
2023-02-22T03:29:34.362Z,31.23
2023-02-22T03:32:07.893Z,30.40
2023-02-22T03:34:43.026Z,30.70
2023-02-22T03:37:14.708Z,31.83
2023-02-22T03:39:44.528Z,30.52
2023-02-22T03:42:16.082Z,29.23
2023-02-22T03:44:45.706Z,28.75
2023-02-22T03:47:18.623Z,27.05
2023-02-22T03:49:53.792Z,25.92
2023-02-22T03:52:21.452Z,27.30
2023-02-22T03:54:48.543Z,28.73
2023-02-22T03:57:23.986Z,28.92
2023-02-22T03:59:57.417Z,30.70
2023-02-22T04:02:25.970Z,28.85
2023-02-22T04:04:54.370Z,27.08
2023-02-22T04:07:21.340Z,28.27
2023-02-22T04:09:54.215Z,29.08
2023-02-22T04:12:21.582Z,27.95
2023-02-22T04:14:59.729Z,29.08
2023-02-22T04:17:26.692Z,28.90
2023-02-22T04:19:56.932Z,28.15
2023-02-22T04:22:26.847Z,29.20
2023-02-22T04:24:55.216Z,30.00
2023-02-22T04:27:22.315Z,29.45
2023-02-22T04:29:49.622Z,32.08
2023-02-22T04:32:17.135Z,31.45
2023-02-22T04:34:43.894Z,34.85
2023-02-22T04:37:12.706Z,33.13
2023-02-22T04:39:40.256Z,35.78
2023-02-22T04:42:07.430Z,32.85
2023-02-22T04:44:38.956Z,33.47
2023-02-22T04:47:05.894Z,33.80
2023-02-22T04:49:33.673Z,32.47
2023-02-22T04:52:01.568Z,35.22
2023-02-22T04:54:43.445Z,34.95
2023-02-22T04:57:10.287Z,35.03
2023-02-22T04:59:38.488Z,34.20
2023-02-22T05:02:06.797Z,38.92
2023-02-22T05:04:39.024Z,38.58
2023-02-22T05:07:06.208Z,38.70
2023-02-22T05:09:34.281Z,38.63
2023-02-22T05:12:04.657Z,39.58
2023-02-22T05:14:31.482Z,40.45
2023-02-22T05:16:58.722Z,40.00
2023-02-22T05:19:26.034Z,38.15
2023-02-22T05:21:53.333Z,36.92
2023-02-22T05:24:20.206Z,36.17
2023-02-22T05:26:48.932Z,34.10
2023-02-22T05:29:17.464Z,33.47
2023-02-22T05:31:45.273Z,29.55
2023-02-22T05:34:12.459Z,31.98
2023-02-22T05:36:42.093Z,29.23
2023-02-22T05:39:09.812Z,30.90
2023-02-22T05:41:36.550Z,27.83
2023-02-22T05:44:04.182Z,28.58
2023-02-22T05:46:33.746Z,26.45
2023-02-22T05:49:00.610Z,25.63
2023-02-22T05:51:27.509Z,24.35
2023-02-22T05:53:55.997Z,25.67
2023-02-22T05:56:26.567Z,23.42
2023-02-22T05:58:54.925Z,24.10
2023-02-22T06:01:22.272Z,25.02
2023-02-22T06:03:54.401Z,24.73
2023-02-22T06:06:22.454Z,24.95
2023-02-22T06:08:57.826Z,25.05
2023-02-22T06:11:27.308Z,24.30
2023-02-22T06:13:54.202Z,25.70
2023-02-22T06:16:22.181Z,23.80
2023-02-22T06:18:52.107Z,22.55
2023-02-22T06:21:20.416Z,22.15
2023-02-22T06:23:47.289Z,23.75
2023-02-22T06:26:16.500Z,24.80
2023-02-22T06:28:43.390Z,23.60
2023-02-22T06:31:12.984Z,22.77
2023-02-22T06:33:40.016Z,22.70
2023-02-22T06:36:08.630Z,23.15
2023-02-22T06:38:52.009Z,24.52
2023-02-22T06:41:18.963Z,23.17
2023-02-22T06:43:47.537Z,23.95
2023-02-22T06:46:14.448Z,23.05
2023-02-22T06:48:41.604Z,24.70
2023-02-22T06:51:10.888Z,24.90
2023-02-22T06:53:37.715Z,24.23
2023-02-22T06:56:07.077Z,23.95
2023-02-22T06:58:34.009Z,23.20
2023-02-22T07:01:01.141Z,23.60
2023-02-22T07:03:28.267Z,22.67
2023-02-22T07:05:55.465Z,22.65
2023-02-22T07:08:22.778Z,20.38
2023-02-22T07:10:52.644Z,19.90
2023-02-22T07:13:20.787Z,19.67
2023-02-22T07:15:47.753Z,19.17
2023-02-22T07:18:14.838Z,18.85
2023-02-22T07:20:42.792Z,18.17
2023-02-22T07:23:13.840Z,18.63
2023-02-22T07:25:40.656Z,18.52
2023-02-22T07:28:08.694Z,18.33
2023-02-22T07:30:38.205Z,18.70
2023-02-22T07:33:07.937Z,19.85
2023-02-22T07:35:37.533Z,20.00
2023-02-22T07:38:05.108Z,19.63
2023-02-22T07:40:32.160Z,19.27
2023-02-22T07:43:07.098Z,19.63
2023-02-22T07:45:36.610Z,18.65
2023-02-22T07:48:05.773Z,16.95
2023-02-22T07:50:34.741Z,17.77
2023-02-22T07:53:05.630Z,16.70
2023-02-22T07:55:34.041Z,17.77
2023-02-22T07:58:02.816Z,16.75
2023-02-22T08:00:31.916Z,17.98
2023-02-22T08:03:02.126Z,17.05
2023-02-22T08:05:30.417Z,17.00
2023-02-22T08:07:57.524Z,17.50
2023-02-22T08:10:26.926Z,16.80
2023-02-22T08:12:55.445Z,16.98
2023-02-22T08:15:25.115Z,17.20
2023-02-22T08:17:52.931Z,17.00
2023-02-22T08:20:21.975Z,17.85
2023-02-22T08:22:48.992Z,17.05
2023-02-22T08:25:17.813Z,16.52
2023-02-22T08:27:47.476Z,17.23
2023-02-22T08:30:17.156Z,17.98
2023-02-22T08:32:47.817Z,17.88
2023-02-22T08:35:15.581Z,17.20
2023-02-22T08:37:44.986Z,16.75
2023-02-22T08:40:14.880Z,15.60
2023-02-22T08:42:41.779Z,17.60
2023-02-22T08:45:09.242Z,15.98
2023-02-22T08:47:36.206Z,14.93
2023-02-22T08:50:03.718Z,15.27
2023-02-22T08:52:31.164Z,14.73
2023-02-22T08:54:59.627Z,13.95
2023-02-22T08:57:26.478Z,14.20
2023-02-22T08:59:55.368Z,14.95
2023-02-22T09:02:22.386Z,13.93
2023-02-22T09:04:49.841Z,13.23
2023-02-22T09:07:18.348Z,13.45
2023-02-22T09:09:45.665Z,13.00
2023-02-22T09:12:14.601Z,12.68
2023-02-22T09:14:41.744Z,13.20
2023-02-22T09:17:09.262Z,12.93
2023-02-22T09:19:36.541Z,12.00
2023-02-22T09:22:03.683Z,11.88
2023-02-22T09:24:30.595Z,11.88
2023-02-22T09:26:57.665Z,11.65
2023-02-22T09:29:27.430Z,10.57
2023-02-22T09:31:55.959Z,11.07
2023-02-22T09:34:24.385Z,11.02
2023-02-22T09:36:51.248Z,10.80
2023-02-22T09:39:18.553Z,10.60
2023-02-22T09:41:54.630Z,10.25
2023-02-22T09:44:32.004Z,10.32
2023-02-22T09:46:59.113Z,9.90
2023-02-22T09:49:32.078Z,10.43
2023-02-22T09:52:06.748Z,10.27
2023-02-22T09:57:07.416Z,9.82
2023-02-22T09:59:42.595Z,8.80
2023-02-22T10:02:23.740Z,9.10
2023-02-22T10:04:57.467Z,9.32
2023-02-22T10:07:30.922Z,9.05
2023-02-22T10:09:59.560Z,9.23
2023-02-22T10:12:31.865Z,8.77
2023-02-22T10:15:24.132Z,9.68
2023-02-22T10:18:03.080Z,8.98
2023-02-22T10:20:44.370Z,8.80
2023-02-22T10:23:22.759Z,8.95
2023-02-22T10:25:55.756Z,8.90
2023-02-22T10:28:27.335Z,9.15
2023-02-22T10:31:01.383Z,8.30
2023-02-22T10:33:33.660Z,8.48
2023-02-22T10:36:00.438Z,8.48
2023-02-22T10:38:37.183Z,7.55
2023-02-22T10:41:20.917Z,8.23
2023-02-22T10:43:50.022Z,8.38
2023-02-22T10:46:27.285Z,7.85
2023-02-22T10:49:01.014Z,8.50
2023-02-22T10:51:31.060Z,7.80
2023-02-22T10:54:23.387Z,8.10
2023-02-22T10:56:51.999Z,7.97
2023-02-22T10:59:32.189Z,7.80
2023-02-22T11:02:18.060Z,6.82
2023-02-22T11:04:52.658Z,7.90
2023-02-22T11:07:23.272Z,7.32
2023-02-22T11:09:53.208Z,7.03
2023-02-22T11:12:26.462Z,7.00
2023-02-22T11:14:53.601Z,7.60
2023-02-22T11:17:29.663Z,6.93
2023-02-22T11:19:57.498Z,6.60
2023-02-22T11:22:27.268Z,7.32
2023-02-22T11:24:57.174Z,6.90
2023-02-22T11:27:37.231Z,7.85
2023-02-22T11:30:17.367Z,7.45
2023-02-22T11:32:49.239Z,7.07
2023-02-22T11:35:38.309Z,7.30
2023-02-22T11:38:16.373Z,7.22
2023-02-22T11:40:44.007Z,6.88
2023-02-22T11:43:16.085Z,8.30
2023-02-22T11:48:31.178Z,6.88
2023-02-22T11:51:14.503Z,6.95
2023-02-22T11:53:56.182Z,6.85
2023-02-22T11:56:37.334Z,6.47
2023-02-22T11:59:15.510Z,7.60
2023-02-22T12:01:48.860Z,7.30
2023-02-22T12:04:42.627Z,6.85
2023-02-22T12:07:25.428Z,6.90
2023-02-22T12:09:58.121Z,7.18
2023-02-22T12:12:31.177Z,7.80
2023-02-22T12:15:05.704Z,7.60
2023-02-22T12:17:54.316Z,6.88
2023-02-22T12:23:05.296Z,6.95
2023-02-22T12:25:35.291Z,7.55
2023-02-22T12:28:24.330Z,7.38
2023-02-22T12:30:57.126Z,7.75
2023-02-22T12:33:29.516Z,7.05
2023-02-22T12:36:00.481Z,8.35
2023-02-22T12:38:33.642Z,7.05
2023-02-22T12:41:06.888Z,7.68
2023-02-22T12:43:39.164Z,7.82
2023-02-22T12:46:17.944Z,8.15
2023-02-22T12:48:54.331Z,8.17
2023-02-22T12:51:28.134Z,8.60
2023-02-22T12:54:04.803Z,8.25
2023-02-22T12:56:36.618Z,8.10
2023-02-22T12:59:10.516Z,8.35
2023-02-22T13:01:40.531Z,8.07
2023-02-22T13:04:20.158Z,8.55
2023-02-22T13:07:06.917Z,8.02
2023-02-22T13:09:59.300Z,7.85
2023-02-22T13:12:34.744Z,9.55
2023-02-22T13:15:08.820Z,8.80
2023-02-22T13:17:44.477Z,9.27
2023-02-22T13:20:17.063Z,8.50
2023-02-22T13:22:51.736Z,8.60
2023-02-22T13:25:24.090Z,8.52
2023-02-22T13:27:55.493Z,9.32
2023-02-22T13:30:29.594Z,8.48
2023-02-22T13:33:21.705Z,8.80
2023-02-22T13:36:02.311Z,8.73
2023-02-22T13:39:08.589Z,8.85
2023-02-22T13:41:56.316Z,9.35
2023-02-22T13:44:41.837Z,9.10
2023-02-22T13:47:33.729Z,8.73
2023-02-22T13:50:23.458Z,8.82
2023-02-22T13:52:51.436Z,9.57
2023-02-22T13:55:23.983Z,8.52
2023-02-22T13:58:01.581Z,9.25
2023-02-22T14:00:44.957Z,9.68
2023-02-22T14:03:37.155Z,9.43
2023-02-22T14:06:05.167Z,9.82
2023-02-22T14:08:44.900Z,8.93
2023-02-22T14:11:48.008Z,9.18
2023-02-22T14:14:17.403Z,9.57
2023-02-22T14:16:44.475Z,9.25
2023-02-22T14:19:18.603Z,9.65
2023-02-22T14:21:57.576Z,9.48
2023-02-22T14:24:24.321Z,10.45
2023-02-22T14:26:57.929Z,9.68
2023-02-22T14:29:26.346Z,9.40
2023-02-22T14:32:05.740Z,10.48
2023-02-22T14:34:45.418Z,10.43
2023-02-22T14:37:16.009Z,10.85
2023-02-22T14:39:45.080Z,11.13
2023-02-22T14:42:16.375Z,11.15
2023-02-22T14:44:54.296Z,10.33
2023-02-22T14:47:24.226Z,9.20
2023-02-22T14:49:53.092Z,11.57
2023-02-22T14:52:24.341Z,11.68
2023-02-22T14:55:05.827Z,12.13
2023-02-22T14:57:44.699Z,13.50
2023-02-22T15:00:19.480Z,13.93
2023-02-22T15:02:47.355Z,13.80
2023-02-22T15:05:15.757Z,13.40
2023-02-22T15:07:51.581Z,13.98
2023-02-22T15:10:23.576Z,13.90
2023-02-22T15:12:59.413Z,14.45
2023-02-22T15:15:27.381Z,13.00
2023-02-22T15:17:55.634Z,14.88
2023-02-22T15:20:27.013Z,13.38
2023-02-22T15:22:58.834Z,14.63
2023-02-22T15:25:28.288Z,14.32
2023-02-22T15:28:01.747Z,14.70
2023-02-22T15:30:32.365Z,14.77
2023-02-22T15:33:10.939Z,16.17
2023-02-22T15:35:39.354Z,16.13
2023-02-22T15:38:15.922Z,16.17
2023-02-22T15:40:42.645Z,15.98
2023-02-22T15:43:18.045Z,15.43
2023-02-22T15:45:46.343Z,16.25
2023-02-22T15:48:13.385Z,15.63
2023-02-22T15:50:40.326Z,15.52
2023-02-22T15:53:18.260Z,15.25
2023-02-22T15:55:47.438Z,15.13
2023-02-22T15:58:22.467Z,14.38
2023-02-22T16:00:59.898Z,13.50
2023-02-22T16:03:26.863Z,15.68
2023-02-22T16:05:56.582Z,14.90
2023-02-22T16:08:25.799Z,15.93
2023-02-22T16:10:59.708Z,15.63
2023-02-22T16:13:32.404Z,15.63
2023-02-22T16:16:03.939Z,15.32
2023-02-22T16:21:02.312Z,15.60
2023-02-22T16:23:30.110Z,16.08
2023-02-22T16:26:17.918Z,16.80
2023-02-22T16:28:48.971Z,16.20
2023-02-22T16:31:17.361Z,16.63
2023-02-22T16:33:45.618Z,16.95
2023-02-22T16:36:14.171Z,15.80
2023-02-22T16:38:40.736Z,15.38
2023-02-22T16:41:07.647Z,15.48
2023-02-22T16:43:34.769Z,15.90
2023-02-22T16:46:04.989Z,16.02
2023-02-22T16:48:33.710Z,14.82
2023-02-22T16:51:06.275Z,15.60
2023-02-22T16:53:33.585Z,15.07
2023-02-22T16:56:03.375Z,16.00
2023-02-22T16:58:33.824Z,15.18
2023-02-22T17:01:00.509Z,14.85
2023-02-22T17:03:27.144Z,13.73
2023-02-22T17:05:55.441Z,14.35
2023-02-22T17:08:22.109Z,14.70
2023-02-22T17:10:49.319Z,15.93
2023-02-22T17:13:23.653Z,15.23
2023-02-22T17:15:51.625Z,15.52
2023-02-22T17:18:19.679Z,15.00
2023-02-22T17:20:46.366Z,15.10
2023-02-22T17:23:14.364Z,15.00
2023-02-22T17:25:44.275Z,15.30
2023-02-22T17:28:11.468Z,16.15
2023-02-22T17:30:38.296Z,15.70
2023-02-22T17:33:06.971Z,15.63
2023-02-22T17:35:37.034Z,16.25
2023-02-22T17:38:05.456Z,15.63
2023-02-22T17:40:35.136Z,16.55
2023-02-22T17:43:02.202Z,15.82
2023-02-22T17:45:29.729Z,16.00
2023-02-22T17:47:56.961Z,16.95
2023-02-22T17:50:23.573Z,16.27
2023-02-22T17:52:50.668Z,16.35
2023-02-22T17:55:17.960Z,16.15
2023-02-22T17:57:46.262Z,16.45
2023-02-22T18:00:16.410Z,16.08
2023-02-22T18:02:43.574Z,17.30
2023-02-22T18:05:12.864Z,16.80
2023-02-22T18:07:39.560Z,16.27
2023-02-22T18:10:06.735Z,16.92
2023-02-22T18:12:33.455Z,16.70
2023-02-22T18:15:01.338Z,16.73
2023-02-22T18:17:27.972Z,17.40
2023-02-22T18:19:54.540Z,17.08
2023-02-22T18:22:21.200Z,17.05
2023-02-22T18:24:47.846Z,17.42
2023-02-22T18:27:14.532Z,16.67
2023-02-22T18:29:41.510Z,17.55
2023-02-22T18:32:09.518Z,18.00
2023-02-22T18:34:36.136Z,17.60
2023-02-22T18:37:02.768Z,17.92
2023-02-22T18:39:29.303Z,17.73
2023-02-22T18:41:55.853Z,18.30
2023-02-22T18:44:22.374Z,18.48
2023-02-22T18:46:49.093Z,18.42
2023-02-22T18:49:17.025Z,18.35
2023-02-22T18:51:43.713Z,17.90
2023-02-22T18:54:12.051Z,18.95
2023-02-22T18:56:39.381Z,18.20
2023-02-22T18:59:07.755Z,19.05
2023-02-22T19:04:03.298Z,18.80
2023-02-22T19:06:31.484Z,17.38
2023-02-22T19:09:00.872Z,18.73
2023-02-22T19:11:27.802Z,18.40
2023-02-22T19:13:56.998Z,18.20
2023-02-22T19:16:26.166Z,20.60
2023-02-22T19:18:54.118Z,19.05
2023-02-22T19:21:21.288Z,19.55
2023-02-22T19:23:50.058Z,20.58
2023-02-22T19:26:19.639Z,20.20
2023-02-22T19:28:47.869Z,20.05
2023-02-22T19:31:17.011Z,20.15
2023-02-22T19:33:44.463Z,19.42
2023-02-22T19:36:12.518Z,21.25
2023-02-22T19:38:39.669Z,20.98
2023-02-22T19:41:10.203Z,18.67
2023-02-22T19:43:37.100Z,21.08
2023-02-22T19:46:04.911Z,20.60
2023-02-22T19:48:31.669Z,19.45
2023-02-22T19:51:02.678Z,20.38
2023-02-22T19:53:29.896Z,21.05
2023-02-22T19:55:56.540Z,21.67
2023-02-22T19:58:24.610Z,21.55
2023-02-22T20:00:51.223Z,21.52
2023-02-22T20:03:17.834Z,21.58
2023-02-22T20:05:44.454Z,23.30
2023-02-22T20:08:11.031Z,23.00
2023-02-22T20:10:37.675Z,22.42
2023-02-22T20:13:04.618Z,22.10
2023-02-22T20:15:33.219Z,22.90
2023-02-22T20:17:59.834Z,24.15
2023-02-22T20:20:27.979Z,23.63
2023-02-22T20:22:56.630Z,23.17
2023-02-22T20:25:23.203Z,23.15
2023-02-22T20:27:49.775Z,23.73
2023-02-22T20:30:16.451Z,23.27
2023-02-22T20:32:44.676Z,24.75
2023-02-22T20:35:11.505Z,23.80
2023-02-22T20:37:38.087Z,24.55
2023-02-22T20:40:05.760Z,24.23
2023-02-22T20:42:32.400Z,23.35
2023-02-22T20:44:59.041Z,25.27
2023-02-22T20:47:25.666Z,25.67
2023-02-22T20:49:53.648Z,23.83
2023-02-22T20:52:20.291Z,25.23
2023-02-22T20:54:46.908Z,24.95
2023-02-22T20:57:13.565Z,27.70
2023-02-22T20:59:40.244Z,26.65
2023-02-22T21:02:06.847Z,28.15
2023-02-22T21:04:33.999Z,28.67
2023-02-22T21:07:01.951Z,32.50
2023-02-22T21:09:29.044Z,39.08
2023-02-22T21:11:55.592Z,40.38
2023-02-22T21:14:22.202Z,40.78
2023-02-22T21:16:50.699Z,40.03
2023-02-22T21:19:18.157Z,40.22
2023-02-22T21:21:44.690Z,41.10
2023-02-22T21:24:12.633Z,42.13
2023-02-22T21:26:39.565Z,42.97
2023-02-22T21:29:06.358Z,42.90
2023-02-22T21:31:34.173Z,45.17
2023-02-22T21:34:01.403Z,42.83
2023-02-22T21:36:28.706Z,45.90
2023-02-22T21:38:56.818Z,43.65
2023-02-22T21:41:27.250Z,44.58
2023-02-22T21:43:55.226Z,42.92
2023-02-22T21:46:21.816Z,44.50
2023-02-22T21:48:49.140Z,46.17
2023-02-22T21:51:18.425Z,44.00
2023-02-22T21:53:45.625Z,45.45
2023-02-22T21:56:13.436Z,45.05
2023-02-22T21:58:41.801Z,45.53
2023-02-22T22:01:08.559Z,45.05
2023-02-22T22:03:35.301Z,44.08
2023-02-22T22:06:06.291Z,46.20
2023-02-22T22:08:32.934Z,45.70
2023-02-22T22:10:59.617Z,44.80
2023-02-22T22:13:26.944Z,45.97
2023-02-22T22:15:54.849Z,45.42
2023-02-22T22:18:21.546Z,47.83
2023-02-22T22:20:48.207Z,47.10
2023-02-22T22:23:14.800Z,46.28
2023-02-22T22:25:41.449Z,46.38
2023-02-22T22:28:09.954Z,45.75
2023-02-22T22:30:38.115Z,45.47
2023-02-22T22:33:06.375Z,45.30
2023-02-22T22:35:33.377Z,45.15
2023-02-22T22:37:59.967Z,46.53
2023-02-22T22:40:27.191Z,45.60
2023-02-22T22:42:54.002Z,44.58
2023-02-22T22:45:20.611Z,45.03
2023-02-22T22:47:47.390Z,46.03
2023-02-22T22:50:16.919Z,45.13
2023-02-22T22:52:43.565Z,45.13
2023-02-22T22:55:10.151Z,43.42
2023-02-22T22:57:36.805Z,43.90
2023-02-22T23:00:07.438Z,42.63
2023-02-22T23:02:34.181Z,45.50
2023-02-22T23:05:00.738Z,44.42
2023-02-22T23:07:28.646Z,43.80
2023-02-22T23:09:55.272Z,44.33
2023-02-22T23:12:21.892Z,42.60
2023-02-22T23:14:48.470Z,44.13
2023-02-22T23:17:16.478Z,44.83
2023-02-22T23:19:44.616Z,43.15
2023-02-22T23:22:11.198Z,43.42
2023-02-22T23:24:39.970Z,43.85
2023-02-22T23:27:07.626Z,43.10
2023-02-22T23:29:37.223Z,44.15
2023-02-22T23:32:04.026Z,45.35
2023-02-22T23:34:30.632Z,44.22
2023-02-22T23:36:57.509Z,45.30
2023-02-22T23:39:24.853Z,43.03
2023-02-22T23:41:54.172Z,44.30
2023-02-22T23:44:21.076Z,42.67
2023-02-22T23:46:49.559Z,43.38
2023-02-22T23:49:16.811Z,44.90
2023-02-22T23:51:43.689Z,42.70
2023-02-22T23:54:12.224Z,43.83
2023-02-22T23:56:40.433Z,44.63
2023-02-22T23:59:08.471Z,45.30
